sensor_id;sensor_type;location;lat;lon;timestamp;temperature;humidity
3758;DHT22;1894;51.038;13.692;2024-03-25T00:00:12;4.90;99.90
3758;DHT22;1894;51.038;13.692;2024-03-25T00:02:40;4.80;99.90
3758;DHT22;1894;51.038;13.692;2024-03-25T00:05:07;4.80;99.90
3758;DHT22;1894;51.038;13.692;2024-03-25T00:07:38;4.80;99.90
3758;DHT22;1894;51.038;13.692;2024-03-25T00:10:04;4.90;99.90
3758;DHT22;1894;51.038;13.692;2024-03-25T00:12:37;4.90;99.90
3758;DHT22;1894;51.038;13.692;2024-03-25T00:15:03;4.90;99.90
3758;DHT22;1894;51.038;13.692;2024-03-25T00:17:30;4.90;99.90
3758;DHT22;1894;51.038;13.692;2024-03-25T00:19:56;4.90;99.90
3758;DHT22;1894;51.038;13.692;2024-03-25T00:22:23;4.70;99.90
3758;DHT22;1894;51.038;13.692;2024-03-25T00:24:51;4.60;99.90
3758;DHT22;1894;51.038;13.692;2024-03-25T00:27:17;4.50;99.90
3758;DHT22;1894;51.038;13.692;2024-03-25T00:29:44;4.40;99.90
3758;DHT22;1894;51.038;13.692;2024-03-25T00:32:10;4.50;99.90
3758;DHT22;1894;51.038;13.692;2024-03-25T00:34:37;4.40;99.90
3758;DHT22;1894;51.038;13.692;2024-03-25T00:37:04;4.30;99.90
3758;DHT22;1894;51.038;13.692;2024-03-25T00:39:30;4.40;99.90
3758;DHT22;1894;51.038;13.692;2024-03-25T00:42:00;4.40;99.90
3758;DHT22;1894;51.038;13.692;2024-03-25T00:44:27;4.40;99.90
3758;DHT22;1894;51.038;13.692;2024-03-25T00:46:53;4.50;99.90
3758;DHT22;1894;51.038;13.692;2024-03-25T00:49:19;4.50;99.90
3758;DHT22;1894;51.038;13.692;2024-03-25T00:51:45;4.50;99.90
3758;DHT22;1894;51.038;13.692;2024-03-25T00:54:11;4.50;99.90
3758;DHT22;1894;51.038;13.692;2024-03-25T00:56:37;4.60;99.90
3758;DHT22;1894;51.038;13.692;2024-03-25T00:59:03;4.60;99.90
3758;DHT22;1894;51.038;13.692;2024-03-25T01:01:30;4.70;99.90
3758;DHT22;1894;51.038;13.692;2024-03-25T01:03:57;4.60;99.90
3758;DHT22;1894;51.038;13.692;2024-03-25T01:06:24;4.70;99.90
3758;DHT22;1894;51.038;13.692;2024-03-25T01:08:50;4.80;99.90
3758;DHT22;1894;51.038;13.692;2024-03-25T01:11:16;4.80;99.90
3758;DHT22;1894;51.038;13.692;2024-03-25T01:13:43;4.90;99.90
3758;DHT22;1894;51.038;13.692;2024-03-25T01:16:09;4.90;99.90
3758;DHT22;1894;51.038;13.692;2024-03-25T01:18:36;4.80;99.90
3758;DHT22;1894;51.038;13.692;2024-03-25T01:21:02;4.90;99.90
3758;DHT22;1894;51.038;13.692;2024-03-25T01:23:29;4.90;99.90
3758;DHT22;1894;51.038;13.692;2024-03-25T01:25:55;4.90;99.90
3758;DHT22;1894;51.038;13.692;2024-03-25T01:28:21;4.90;99.90
3758;DHT22;1894;51.038;13.692;2024-03-25T01:30:48;4.80;99.90
3758;DHT22;1894;51.038;13.692;2024-03-25T01:33:14;4.70;99.90
3758;DHT22;1894;51.038;13.692;2024-03-25T01:35:41;4.60;99.90
3758;DHT22;1894;51.038;13.692;2024-03-25T01:38:07;4.50;99.90
3758;DHT22;1894;51.038;13.692;2024-03-25T01:40:34;4.40;99.90
3758;DHT22;1894;51.038;13.692;2024-03-25T01:43:02;4.50;99.90
3758;DHT22;1894;51.038;13.692;2024-03-25T01:45:33;4.50;99.90
3758;DHT22;1894;51.038;13.692;2024-03-25T01:48:06;4.50;99.90
3758;DHT22;1894;51.038;13.692;2024-03-25T01:50:36;4.40;99.90
3758;DHT22;1894;51.038;13.692;2024-03-25T01:53:10;4.30;99.90
3758;DHT22;1894;51.038;13.692;2024-03-25T01:55:37;4.10;99.90
3758;DHT22;1894;51.038;13.692;2024-03-25T01:58:07;3.90;99.90
3758;DHT22;1894;51.038;13.692;2024-03-25T02:00:35;3.80;99.90
3758;DHT22;1894;51.038;13.692;2024-03-25T02:03:01;3.80;99.90
3758;DHT22;1894;51.038;13.692;2024-03-25T02:05:28;3.90;99.90
3758;DHT22;1894;51.038;13.692;2024-03-25T02:07:55;3.90;99.90
3758;DHT22;1894;51.038;13.692;2024-03-25T02:10:21;4.00;99.90
3758;DHT22;1894;51.038;13.692;2024-03-25T02:12:49;4.00;99.90
3758;DHT22;1894;51.038;13.692;2024-03-25T02:15:16;4.10;99.90
3758;DHT22;1894;51.038;13.692;2024-03-25T02:17:42;4.20;99.90
3758;DHT22;1894;51.038;13.692;2024-03-25T02:20:08;4.30;99.90
3758;DHT22;1894;51.038;13.692;2024-03-25T02:22:36;4.40;99.90
3758;DHT22;1894;51.038;13.692;2024-03-25T02:25:06;4.40;99.90
3758;DHT22;1894;51.038;13.692;2024-03-25T02:27:37;4.40;99.90
3758;DHT22;1894;51.038;13.692;2024-03-25T02:30:09;4.50;99.90
3758;DHT22;1894;51.038;13.692;2024-03-25T02:32:40;4.50;99.90
3758;DHT22;1894;51.038;13.692;2024-03-25T02:35:15;4.50;99.90
3758;DHT22;1894;51.038;13.692;2024-03-25T02:37:42;4.50;99.90
3758;DHT22;1894;51.038;13.692;2024-03-25T02:40:09;4.50;99.90
3758;DHT22;1894;51.038;13.692;2024-03-25T02:42:37;4.50;99.90
3758;DHT22;1894;51.038;13.692;2024-03-25T02:45:06;4.60;99.90
3758;DHT22;1894;51.038;13.692;2024-03-25T02:47:32;4.60;99.90
3758;DHT22;1894;51.038;13.692;2024-03-25T02:49:58;4.60;99.90
3758;DHT22;1894;51.038;13.692;2024-03-25T02:52:24;4.60;99.90
3758;DHT22;1894;51.038;13.692;2024-03-25T02:54:50;4.70;99.90
3758;DHT22;1894;51.038;13.692;2024-03-25T02:57:17;4.70;99.90
3758;DHT22;1894;51.038;13.692;2024-03-25T02:59:43;4.70;99.90
3758;DHT22;1894;51.038;13.692;2024-03-25T03:02:09;4.70;99.90
3758;DHT22;1894;51.038;13.692;2024-03-25T03:04:35;4.80;99.90
3758;DHT22;1894;51.038;13.692;2024-03-25T03:07:01;4.80;99.90
3758;DHT22;1894;51.038;13.692;2024-03-25T03:09:27;4.90;99.90
3758;DHT22;1894;51.038;13.692;2024-03-25T03:11:53;4.90;99.90
3758;DHT22;1894;51.038;13.692;2024-03-25T03:14:19;4.90;99.90
3758;DHT22;1894;51.038;13.692;2024-03-25T03:16:45;5.00;99.90
3758;DHT22;1894;51.038;13.692;2024-03-25T03:19:11;5.00;99.90
3758;DHT22;1894;51.038;13.692;2024-03-25T03:21:37;5.00;99.90
3758;DHT22;1894;51.038;13.692;2024-03-25T03:24:04;5.00;99.90
3758;DHT22;1894;51.038;13.692;2024-03-25T03:26:31;5.10;99.90
3758;DHT22;1894;51.038;13.692;2024-03-25T03:28:57;5.00;99.90
3758;DHT22;1894;51.038;13.692;2024-03-25T03:31:24;5.10;99.90
3758;DHT22;1894;51.038;13.692;2024-03-25T03:33:51;5.10;99.90
3758;DHT22;1894;51.038;13.692;2024-03-25T03:36:20;5.10;99.90
3758;DHT22;1894;51.038;13.692;2024-03-25T03:38:49;5.10;99.90
3758;DHT22;1894;51.038;13.692;2024-03-25T03:41:16;5.10;99.90
3758;DHT22;1894;51.038;13.692;2024-03-25T03:43:42;5.10;99.90
3758;DHT22;1894;51.038;13.692;2024-03-25T03:46:08;5.10;99.90
3758;DHT22;1894;51.038;13.692;2024-03-25T03:48:34;5.10;99.90
3758;DHT22;1894;51.038;13.692;2024-03-25T03:51:01;5.10;99.90
3758;DHT22;1894;51.038;13.692;2024-03-25T03:53:27;5.00;99.90
3758;DHT22;1894;51.038;13.692;2024-03-25T03:55:57;5.10;99.90
3758;DHT22;1894;51.038;13.692;2024-03-25T03:58:25;5.00;99.90
3758;DHT22;1894;51.038;13.692;2024-03-25T04:00:51;5.00;99.90
3758;DHT22;1894;51.038;13.692;2024-03-25T04:03:18;5.10;99.90
3758;DHT22;1894;51.038;13.692;2024-03-25T04:05:45;5.20;99.90
3758;DHT22;1894;51.038;13.692;2024-03-25T04:08:12;5.20;99.90
3758;DHT22;1894;51.038;13.692;2024-03-25T04:10:38;5.30;99.90
3758;DHT22;1894;51.038;13.692;2024-03-25T04:13:07;5.30;99.90
3758;DHT22;1894;51.038;13.692;2024-03-25T04:15:37;5.30;99.90
3758;DHT22;1894;51.038;13.692;2024-03-25T04:18:04;5.40;99.90
3758;DHT22;1894;51.038;13.692;2024-03-25T04:20:38;5.40;99.90
3758;DHT22;1894;51.038;13.692;2024-03-25T04:23:05;5.40;99.90
3758;DHT22;1894;51.038;13.692;2024-03-25T04:25:36;5.40;99.90
3758;DHT22;1894;51.038;13.692;2024-03-25T04:28:05;5.40;99.90
3758;DHT22;1894;51.038;13.692;2024-03-25T04:30:32;5.40;99.90
3758;DHT22;1894;51.038;13.692;2024-03-25T04:33:00;5.40;99.90
3758;DHT22;1894;51.038;13.692;2024-03-25T04:35:26;5.40;99.90
3758;DHT22;1894;51.038;13.692;2024-03-25T04:37:52;5.30;99.90
3758;DHT22;1894;51.038;13.692;2024-03-25T04:40:18;5.30;99.90
3758;DHT22;1894;51.038;13.692;2024-03-25T04:42:45;5.30;99.90
3758;DHT22;1894;51.038;13.692;2024-03-25T04:45:11;5.30;99.90
3758;DHT22;1894;51.038;13.692;2024-03-25T04:47:38;5.30;99.90
3758;DHT22;1894;51.038;13.692;2024-03-25T04:50:04;5.40;99.90
3758;DHT22;1894;51.038;13.692;2024-03-25T04:52:31;5.30;99.90
3758;DHT22;1894;51.038;13.692;2024-03-25T04:54:57;5.30;99.90
3758;DHT22;1894;51.038;13.692;2024-03-25T04:57:23;5.30;99.90
3758;DHT22;1894;51.038;13.692;2024-03-25T04:59:49;5.20;99.90
3758;DHT22;1894;51.038;13.692;2024-03-25T05:02:15;5.20;99.90
3758;DHT22;1894;51.038;13.692;2024-03-25T05:04:41;5.20;99.90
3758;DHT22;1894;51.038;13.692;2024-03-25T05:07:07;5.30;99.90
3758;DHT22;1894;51.038;13.692;2024-03-25T05:09:33;5.30;99.90
3758;DHT22;1894;51.038;13.692;2024-03-25T05:11:59;5.40;99.90
3758;DHT22;1894;51.038;13.692;2024-03-25T05:14:26;5.40;99.90
3758;DHT22;1894;51.038;13.692;2024-03-25T05:16:52;5.40;99.90
3758;DHT22;1894;51.038;13.692;2024-03-25T05:19:19;5.40;99.90
3758;DHT22;1894;51.038;13.692;2024-03-25T05:21:45;5.40;99.90
3758;DHT22;1894;51.038;13.692;2024-03-25T05:24:11;5.50;99.90
3758;DHT22;1894;51.038;13.692;2024-03-25T05:26:38;5.30;99.90
3758;DHT22;1894;51.038;13.692;2024-03-25T05:29:04;5.30;99.90
3758;DHT22;1894;51.038;13.692;2024-03-25T05:31:30;5.30;99.90
3758;DHT22;1894;51.038;13.692;2024-03-25T05:33:57;5.30;99.90
3758;DHT22;1894;51.038;13.692;2024-03-25T05:36:25;5.30;99.90
3758;DHT22;1894;51.038;13.692;2024-03-25T05:38:52;5.30;99.90
3758;DHT22;1894;51.038;13.692;2024-03-25T05:41:18;5.20;99.90
3758;DHT22;1894;51.038;13.692;2024-03-25T05:43:44;5.20;99.90
3758;DHT22;1894;51.038;13.692;2024-03-25T05:46:09;5.20;99.90
3758;DHT22;1894;51.038;13.692;2024-03-25T05:48:36;5.20;99.90
3758;DHT22;1894;51.038;13.692;2024-03-25T05:51:03;5.20;99.90
3758;DHT22;1894;51.038;13.692;2024-03-25T05:53:34;5.40;99.90
3758;DHT22;1894;51.038;13.692;2024-03-25T05:56:00;5.20;99.90
3758;DHT22;1894;51.038;13.692;2024-03-25T05:58:26;5.30;99.90
3758;DHT22;1894;51.038;13.692;2024-03-25T06:00:53;5.30;99.90
3758;DHT22;1894;51.038;13.692;2024-03-25T06:03:20;5.40;99.90
3758;DHT22;1894;51.038;13.692;2024-03-25T06:05:46;5.40;99.90
3758;DHT22;1894;51.038;13.692;2024-03-25T06:08:13;5.50;99.90
3758;DHT22;1894;51.038;13.692;2024-03-25T06:11:05;5.40;99.90
3758;DHT22;1894;51.038;13.692;2024-03-25T06:13:32;5.50;99.90
3758;DHT22;1894;51.038;13.692;2024-03-25T06:15:59;5.60;99.90
3758;DHT22;1894;51.038;13.692;2024-03-25T06:18:25;5.70;99.90
3758;DHT22;1894;51.038;13.692;2024-03-25T06:20:51;5.60;99.90
3758;DHT22;1894;51.038;13.692;2024-03-25T06:23:27;5.70;99.90
3758;DHT22;1894;51.038;13.692;2024-03-25T06:25:54;5.80;99.90
3758;DHT22;1894;51.038;13.692;2024-03-25T06:28:21;5.70;99.90
3758;DHT22;1894;51.038;13.692;2024-03-25T06:30:48;5.80;99.90
3758;DHT22;1894;51.038;13.692;2024-03-25T06:33:34;5.90;99.90
3758;DHT22;1894;51.038;13.692;2024-03-25T06:36:19;5.80;99.90
3758;DHT22;1894;51.038;13.692;2024-03-25T06:38:46;5.90;99.90
3758;DHT22;1894;51.038;13.692;2024-03-25T06:41:12;5.90;99.90
3758;DHT22;1894;51.038;13.692;2024-03-25T06:43:39;5.90;99.90
3758;DHT22;1894;51.038;13.692;2024-03-25T06:46:06;5.90;99.90
3758;DHT22;1894;51.038;13.692;2024-03-25T06:48:35;6.00;99.90
3758;DHT22;1894;51.038;13.692;2024-03-25T06:51:04;6.10;99.90
3758;DHT22;1894;51.038;13.692;2024-03-25T06:53:30;6.00;99.90
3758;DHT22;1894;51.038;13.692;2024-03-25T06:56:00;5.90;99.90
3758;DHT22;1894;51.038;13.692;2024-03-25T06:58:27;6.00;99.90
3758;DHT22;1894;51.038;13.692;2024-03-25T07:00:55;6.10;99.90
3758;DHT22;1894;51.038;13.692;2024-03-25T07:03:23;6.10;99.90
3758;DHT22;1894;51.038;13.692;2024-03-25T07:05:50;6.20;99.90
3758;DHT22;1894;51.038;13.692;2024-03-25T07:08:21;6.30;99.90
3758;DHT22;1894;51.038;13.692;2024-03-25T07:10:47;6.10;99.90
3758;DHT22;1894;51.038;13.692;2024-03-25T07:13:13;6.30;99.90
3758;DHT22;1894;51.038;13.692;2024-03-25T07:15:40;6.40;99.90
3758;DHT22;1894;51.038;13.692;2024-03-25T07:18:06;6.60;99.90
3758;DHT22;1894;51.038;13.692;2024-03-25T07:20:32;6.50;99.90
3758;DHT22;1894;51.038;13.692;2024-03-25T07:22:58;6.70;99.90
3758;DHT22;1894;51.038;13.692;2024-03-25T07:25:25;6.90;99.90
3758;DHT22;1894;51.038;13.692;2024-03-25T07:27:51;7.10;99.90
3758;DHT22;1894;51.038;13.692;2024-03-25T07:30:20;6.90;99.90
3758;DHT22;1894;51.038;13.692;2024-03-25T07:32:54;7.00;99.90
3758;DHT22;1894;51.038;13.692;2024-03-25T07:35:20;7.00;99.90
3758;DHT22;1894;51.038;13.692;2024-03-25T07:37:47;6.80;99.90
3758;DHT22;1894;51.038;13.692;2024-03-25T07:40:20;6.80;99.90
3758;DHT22;1894;51.038;13.692;2024-03-25T07:42:48;7.00;99.90
3758;DHT22;1894;51.038;13.692;2024-03-25T07:45:17;7.20;99.90
3758;DHT22;1894;51.038;13.692;2024-03-25T07:47:43;7.00;99.90
3758;DHT22;1894;51.038;13.692;2024-03-25T07:50:11;7.30;99.90
3758;DHT22;1894;51.038;13.692;2024-03-25T07:52:37;7.40;99.90
3758;DHT22;1894;51.038;13.692;2024-03-25T07:55:07;7.30;99.90
3758;DHT22;1894;51.038;13.692;2024-03-25T07:57:33;7.50;99.90
3758;DHT22;1894;51.038;13.692;2024-03-25T07:59:59;7.40;99.90
3758;DHT22;1894;51.038;13.692;2024-03-25T08:02:25;7.40;99.90
3758;DHT22;1894;51.038;13.692;2024-03-25T08:04:51;7.40;99.90
3758;DHT22;1894;51.038;13.692;2024-03-25T08:07:17;7.60;99.90
3758;DHT22;1894;51.038;13.692;2024-03-25T08:09:43;7.90;99.90
3758;DHT22;1894;51.038;13.692;2024-03-25T08:12:09;7.70;99.90
3758;DHT22;1894;51.038;13.692;2024-03-25T08:14:35;7.40;99.90
3758;DHT22;1894;51.038;13.692;2024-03-25T08:17:01;7.40;99.90
3758;DHT22;1894;51.038;13.692;2024-03-25T08:19:28;7.10;99.90
3758;DHT22;1894;51.038;13.692;2024-03-25T08:21:54;7.00;99.90
3758;DHT22;1894;51.038;13.692;2024-03-25T08:24:20;7.30;99.90
3758;DHT22;1894;51.038;13.692;2024-03-25T08:26:46;7.30;99.90
3758;DHT22;1894;51.038;13.692;2024-03-25T08:29:12;7.20;99.90
3758;DHT22;1894;51.038;13.692;2024-03-25T08:31:38;7.30;99.90
3758;DHT22;1894;51.038;13.692;2024-03-25T08:34:04;7.40;99.90
3758;DHT22;1894;51.038;13.692;2024-03-25T08:36:30;7.40;99.90
3758;DHT22;1894;51.038;13.692;2024-03-25T08:38:56;7.40;99.90
3758;DHT22;1894;51.038;13.692;2024-03-25T08:41:22;7.50;99.90
3758;DHT22;1894;51.038;13.692;2024-03-25T08:43:48;7.60;99.90
3758;DHT22;1894;51.038;13.692;2024-03-25T08:46:14;7.70;99.90
3758;DHT22;1894;51.038;13.692;2024-03-25T08:48:40;7.90;99.90
3758;DHT22;1894;51.038;13.692;2024-03-25T08:51:06;8.00;99.90
3758;DHT22;1894;51.038;13.692;2024-03-25T08:53:33;8.40;99.90
3758;DHT22;1894;51.038;13.692;2024-03-25T08:55:59;8.40;99.90
3758;DHT22;1894;51.038;13.692;2024-03-25T08:58:25;8.70;99.90
3758;DHT22;1894;51.038;13.692;2024-03-25T09:00:51;8.20;99.90
3758;DHT22;1894;51.038;13.692;2024-03-25T09:03:17;7.80;99.90
3758;DHT22;1894;51.038;13.692;2024-03-25T09:05:43;8.00;99.90
3758;DHT22;1894;51.038;13.692;2024-03-25T09:08:09;8.00;99.90
3758;DHT22;1894;51.038;13.692;2024-03-25T09:10:38;8.00;99.90
3758;DHT22;1894;51.038;13.692;2024-03-25T09:13:22;8.00;99.90
3758;DHT22;1894;51.038;13.692;2024-03-25T09:15:51;8.00;99.90
3758;DHT22;1894;51.038;13.692;2024-03-25T09:18:20;8.00;99.90
3758;DHT22;1894;51.038;13.692;2024-03-25T09:20:46;7.80;99.90
3758;DHT22;1894;51.038;13.692;2024-03-25T09:23:12;7.60;99.90
3758;DHT22;1894;51.038;13.692;2024-03-25T09:25:39;8.10;99.90
3758;DHT22;1894;51.038;13.692;2024-03-25T09:28:05;8.20;99.90
3758;DHT22;1894;51.038;13.692;2024-03-25T09:30:32;8.10;99.90
3758;DHT22;1894;51.038;13.692;2024-03-25T09:32:58;8.10;99.90
3758;DHT22;1894;51.038;13.692;2024-03-25T09:35:24;8.40;99.90
3758;DHT22;1894;51.038;13.692;2024-03-25T09:37:50;8.70;99.90
3758;DHT22;1894;51.038;13.692;2024-03-25T09:40:16;8.40;99.90
3758;DHT22;1894;51.038;13.692;2024-03-25T09:42:50;8.40;99.90
3758;DHT22;1894;51.038;13.692;2024-03-25T09:45:18;8.60;99.90
3758;DHT22;1894;51.038;13.692;2024-03-25T09:47:48;8.60;99.90
3758;DHT22;1894;51.038;13.692;2024-03-25T09:50:15;8.50;99.90
3758;DHT22;1894;51.038;13.692;2024-03-25T09:52:46;8.80;99.90
3758;DHT22;1894;51.038;13.692;2024-03-25T09:55:12;8.70;99.90
3758;DHT22;1894;51.038;13.692;2024-03-25T09:57:38;8.40;99.90
3758;DHT22;1894;51.038;13.692;2024-03-25T10:00:07;8.10;99.90
3758;DHT22;1894;51.038;13.692;2024-03-25T10:02:40;8.10;99.90
3758;DHT22;1894;51.038;13.692;2024-03-25T10:05:07;8.50;99.90
3758;DHT22;1894;51.038;13.692;2024-03-25T10:07:34;8.60;99.90
3758;DHT22;1894;51.038;13.692;2024-03-25T10:10:05;8.70;99.90
3758;DHT22;1894;51.038;13.692;2024-03-25T10:12:32;8.80;99.90
3758;DHT22;1894;51.038;13.692;2024-03-25T10:14:59;8.80;99.90
3758;DHT22;1894;51.038;13.692;2024-03-25T10:17:25;9.00;99.90
3758;DHT22;1894;51.038;13.692;2024-03-25T10:19:54;8.70;99.90
3758;DHT22;1894;51.038;13.692;2024-03-25T10:22:20;8.50;99.90
3758;DHT22;1894;51.038;13.692;2024-03-25T10:24:47;8.20;99.90
3758;DHT22;1894;51.038;13.692;2024-03-25T10:27:21;8.00;99.90
3758;DHT22;1894;51.038;13.692;2024-03-25T10:29:57;8.10;99.90
3758;DHT22;1894;51.038;13.692;2024-03-25T10:32:23;8.30;99.90
3758;DHT22;1894;51.038;13.692;2024-03-25T10:34:56;8.40;99.90
3758;DHT22;1894;51.038;13.692;2024-03-25T10:37:25;8.80;99.90
3758;DHT22;1894;51.038;13.692;2024-03-25T10:39:54;8.90;99.90
3758;DHT22;1894;51.038;13.692;2024-03-25T10:42:27;9.20;99.90
3758;DHT22;1894;51.038;13.692;2024-03-25T10:44:53;9.30;99.90
3758;DHT22;1894;51.038;13.692;2024-03-25T10:47:21;9.50;99.90
3758;DHT22;1894;51.038;13.692;2024-03-25T10:49:59;10.10;99.90
3758;DHT22;1894;51.038;13.692;2024-03-25T10:52:32;9.40;99.90
3758;DHT22;1894;51.038;13.692;2024-03-25T10:54:59;9.10;99.90
3758;DHT22;1894;51.038;13.692;2024-03-25T10:57:26;9.20;99.90
3758;DHT22;1894;51.038;13.692;2024-03-25T10:59:55;9.10;99.90
3758;DHT22;1894;51.038;13.692;2024-03-25T11:02:23;8.90;99.90
3758;DHT22;1894;51.038;13.692;2024-03-25T11:04:50;8.80;99.90
3758;DHT22;1894;51.038;13.692;2024-03-25T11:07:17;9.00;99.90
3758;DHT22;1894;51.038;13.692;2024-03-25T11:09:43;9.10;99.90
3758;DHT22;1894;51.038;13.692;2024-03-25T11:12:13;9.10;99.90
3758;DHT22;1894;51.038;13.692;2024-03-25T11:14:40;8.90;99.90
3758;DHT22;1894;51.038;13.692;2024-03-25T11:17:16;9.00;99.90
3758;DHT22;1894;51.038;13.692;2024-03-25T11:19:42;9.30;99.90
3758;DHT22;1894;51.038;13.692;2024-03-25T11:22:11;9.50;99.90
3758;DHT22;1894;51.038;13.692;2024-03-25T11:24:38;9.60;99.90
3758;DHT22;1894;51.038;13.692;2024-03-25T11:27:09;9.30;99.90
3758;DHT22;1894;51.038;13.692;2024-03-25T11:29:35;9.40;99.90
3758;DHT22;1894;51.038;13.692;2024-03-25T11:32:05;9.20;99.90
3758;DHT22;1894;51.038;13.692;2024-03-25T11:34:32;8.80;99.90
3758;DHT22;1894;51.038;13.692;2024-03-25T11:36:58;9.30;99.90
3758;DHT22;1894;51.038;13.692;2024-03-25T11:39:24;9.50;99.90
3758;DHT22;1894;51.038;13.692;2024-03-25T11:41:54;9.20;99.90
3758;DHT22;1894;51.038;13.692;2024-03-25T11:44:21;9.50;99.90
3758;DHT22;1894;51.038;13.692;2024-03-25T11:46:51;9.60;99.90
3758;DHT22;1894;51.038;13.692;2024-03-25T11:49:21;9.60;99.90
3758;DHT22;1894;51.038;13.692;2024-03-25T11:51:47;9.50;99.90
3758;DHT22;1894;51.038;13.692;2024-03-25T11:54:13;9.10;99.90
3758;DHT22;1894;51.038;13.692;2024-03-25T11:56:40;9.00;99.90
3758;DHT22;1894;51.038;13.692;2024-03-25T11:59:07;9.00;99.90
3758;DHT22;1894;51.038;13.692;2024-03-25T12:01:34;9.30;99.90
3758;DHT22;1894;51.038;13.692;2024-03-25T12:04:11;9.30;99.90
3758;DHT22;1894;51.038;13.692;2024-03-25T12:06:38;9.40;99.90
3758;DHT22;1894;51.038;13.692;2024-03-25T12:09:04;9.20;99.90
3758;DHT22;1894;51.038;13.692;2024-03-25T12:11:48;9.30;99.90
3758;DHT22;1894;51.038;13.692;2024-03-25T12:14:15;10.30;99.90
3758;DHT22;1894;51.038;13.692;2024-03-25T12:16:42;12.00;99.90
3758;DHT22;1894;51.038;13.692;2024-03-25T12:19:08;13.40;99.90
3758;DHT22;1894;51.038;13.692;2024-03-25T12:21:34;12.60;99.90
3758;DHT22;1894;51.038;13.692;2024-03-25T12:24:00;12.10;99.90
3758;DHT22;1894;51.038;13.692;2024-03-25T12:26:26;12.00;99.90
3758;DHT22;1894;51.038;13.692;2024-03-25T12:28:53;11.30;99.90
3758;DHT22;1894;51.038;13.692;2024-03-25T12:31:19;10.70;99.90
3758;DHT22;1894;51.038;13.692;2024-03-25T12:33:49;10.20;99.90
3758;DHT22;1894;51.038;13.692;2024-03-25T12:36:15;9.60;99.90
3758;DHT22;1894;51.038;13.692;2024-03-25T12:38:41;9.70;99.90
3758;DHT22;1894;51.038;13.692;2024-03-25T12:41:09;10.10;99.90
3758;DHT22;1894;51.038;13.692;2024-03-25T12:43:42;10.60;99.90
3758;DHT22;1894;51.038;13.692;2024-03-25T12:46:12;10.40;99.90
3758;DHT22;1894;51.038;13.692;2024-03-25T12:48:38;10.80;99.90
3758;DHT22;1894;51.038;13.692;2024-03-25T12:51:14;11.10;99.90
3758;DHT22;1894;51.038;13.692;2024-03-25T12:53:41;12.10;99.90
3758;DHT22;1894;51.038;13.692;2024-03-25T12:56:08;12.50;99.90
3758;DHT22;1894;51.038;13.692;2024-03-25T12:58:34;11.90;99.90
3758;DHT22;1894;51.038;13.692;2024-03-25T13:01:06;12.10;99.90
3758;DHT22;1894;51.038;13.692;2024-03-25T13:03:32;11.80;99.90
3758;DHT22;1894;51.038;13.692;2024-03-25T13:05:58;11.60;99.90
3758;DHT22;1894;51.038;13.692;2024-03-25T13:08:33;11.70;99.90
3758;DHT22;1894;51.038;13.692;2024-03-25T13:11:00;11.40;99.90
3758;DHT22;1894;51.038;13.692;2024-03-25T13:13:29;10.70;99.90
3758;DHT22;1894;51.038;13.692;2024-03-25T13:15:55;10.60;99.90
3758;DHT22;1894;51.038;13.692;2024-03-25T13:18:21;10.50;99.90
3758;DHT22;1894;51.038;13.692;2024-03-25T13:20:47;9.90;99.90
3758;DHT22;1894;51.038;13.692;2024-03-25T13:23:14;10.20;99.90
3758;DHT22;1894;51.038;13.692;2024-03-25T13:25:40;10.60;99.90
3758;DHT22;1894;51.038;13.692;2024-03-25T13:28:08;10.70;99.90
3758;DHT22;1894;51.038;13.692;2024-03-25T13:30:37;10.80;99.90
3758;DHT22;1894;51.038;13.692;2024-03-25T13:33:03;10.90;99.90
3758;DHT22;1894;51.038;13.692;2024-03-25T13:35:29;11.30;99.90
3758;DHT22;1894;51.038;13.692;2024-03-25T13:37:56;11.60;99.90
3758;DHT22;1894;51.038;13.692;2024-03-25T13:40:22;11.90;99.40
3758;DHT22;1894;51.038;13.692;2024-03-25T13:42:48;12.80;99.10
3758;DHT22;1894;51.038;13.692;2024-03-25T13:45:14;13.60;98.20
3758;DHT22;1894;51.038;13.692;2024-03-25T13:47:40;14.10;96.60
3758;DHT22;1894;51.038;13.692;2024-03-25T13:50:07;13.60;96.50
3758;DHT22;1894;51.038;13.692;2024-03-25T13:52:33;15.20;95.40
3758;DHT22;1894;51.038;13.692;2024-03-25T13:55:00;16.40;92.20
3758;DHT22;1894;51.038;13.692;2024-03-25T13:57:27;17.20;91.40
3758;DHT22;1894;51.038;13.692;2024-03-25T13:59:53;19.00;83.80
3758;DHT22;1894;51.038;13.692;2024-03-25T14:02:19;16.60;83.10
3758;DHT22;1894;51.038;13.692;2024-03-25T14:04:45;14.90;85.30
3758;DHT22;1894;51.038;13.692;2024-03-25T14:07:11;14.20;86.20
3758;DHT22;1894;51.038;13.692;2024-03-25T14:09:37;14.60;87.00
3758;DHT22;1894;51.038;13.692;2024-03-25T14:12:04;14.30;88.30
3758;DHT22;1894;51.038;13.692;2024-03-25T14:14:31;13.30;88.60
3758;DHT22;1894;51.038;13.692;2024-03-25T14:16:57;12.30;90.50
3758;DHT22;1894;51.038;13.692;2024-03-25T14:19:23;12.50;90.90
3758;DHT22;1894;51.038;13.692;2024-03-25T14:21:50;13.30;91.00
3758;DHT22;1894;51.038;13.692;2024-03-25T14:24:16;12.70;90.70
3758;DHT22;1894;51.038;13.692;2024-03-25T14:26:42;13.00;91.10
3758;DHT22;1894;51.038;13.692;2024-03-25T14:29:08;12.20;90.90
3758;DHT22;1894;51.038;13.692;2024-03-25T14:31:34;12.30;91.20
3758;DHT22;1894;51.038;13.692;2024-03-25T14:34:00;12.60;90.80
3758;DHT22;1894;51.038;13.692;2024-03-25T14:36:26;13.20;90.40
3758;DHT22;1894;51.038;13.692;2024-03-25T14:38:52;14.70;90.10
3758;DHT22;1894;51.038;13.692;2024-03-25T14:41:20;16.80;86.60
3758;DHT22;1894;51.038;13.692;2024-03-25T14:43:46;19.20;81.40
3758;DHT22;1894;51.038;13.692;2024-03-25T14:46:14;18.90;74.70
3758;DHT22;1894;51.038;13.692;2024-03-25T14:48:40;17.10;77.40
3758;DHT22;1894;51.038;13.692;2024-03-25T14:51:06;16.70;76.70
3758;DHT22;1894;51.038;13.692;2024-03-25T14:53:33;15.10;78.70
3758;DHT22;1894;51.038;13.692;2024-03-25T14:56:00;13.90;80.10
3758;DHT22;1894;51.038;13.692;2024-03-25T14:58:26;13.90;82.30
3758;DHT22;1894;51.038;13.692;2024-03-25T15:00:53;14.10;83.00
3758;DHT22;1894;51.038;13.692;2024-03-25T15:03:19;16.60;81.00
3758;DHT22;1894;51.038;13.692;2024-03-25T15:05:45;16.70;79.90
3758;DHT22;1894;51.038;13.692;2024-03-25T15:08:11;19.00;74.70
3758;DHT22;1894;51.038;13.692;2024-03-25T15:10:38;18.70;74.40
3758;DHT22;1894;51.038;13.692;2024-03-25T15:13:04;18.50;73.80
3758;DHT22;1894;51.038;13.692;2024-03-25T15:15:30;20.50;72.70
3758;DHT22;1894;51.038;13.692;2024-03-25T15:18:01;19.70;67.30
3758;DHT22;1894;51.038;13.692;2024-03-25T15:20:27;19.70;69.80
3758;DHT22;1894;51.038;13.692;2024-03-25T15:22:53;20.70;66.90
3758;DHT22;1894;51.038;13.692;2024-03-25T15:25:19;21.10;64.80
3758;DHT22;1894;51.038;13.692;2024-03-25T15:27:45;19.50;60.70
3758;DHT22;1894;51.038;13.692;2024-03-25T15:30:11;17.60;63.90
3758;DHT22;1894;51.038;13.692;2024-03-25T15:32:37;17.90;65.10
3758;DHT22;1894;51.038;13.692;2024-03-25T15:35:03;18.70;66.80
3758;DHT22;1894;51.038;13.692;2024-03-25T15:37:30;18.50;66.10
3758;DHT22;1894;51.038;13.692;2024-03-25T15:39:56;17.00;67.90
3758;DHT22;1894;51.038;13.692;2024-03-25T15:42:22;18.30;67.50
3758;DHT22;1894;51.038;13.692;2024-03-25T15:44:51;20.30;66.90
3758;DHT22;1894;51.038;13.692;2024-03-25T15:47:23;22.50;63.60
3758;DHT22;1894;51.038;13.692;2024-03-25T15:49:50;21.70;62.40
3758;DHT22;1894;51.038;13.692;2024-03-25T15:52:16;21.80;61.50
3758;DHT22;1894;51.038;13.692;2024-03-25T15:54:43;22.40;59.00
3758;DHT22;1894;51.038;13.692;2024-03-25T15:57:09;20.50;57.80